sensor_id;sensor_type;location;lat;lon;timestamp;pressure;altitude;pressure_sealevel;temperature;humidity
56402;BME280;42299;35.160;26.100;2022-08-16T00:00:49;100705.34;;;22.89;63.26
56402;BME280;42299;35.160;26.100;2022-08-16T00:02:12;100709.00;;;22.86;63.72
56402;BME280;42299;35.160;26.100;2022-08-16T00:03:33;100700.09;;;22.84;63.42
56402;BME280;42299;35.160;26.100;2022-08-16T00:04:56;100702.78;;;22.84;63.41
56402;BME280;42299;35.160;26.100;2022-08-16T00:06:19;100700.00;;;22.87;63.37
56402;BME280;42299;35.160;26.100;2022-08-16T00:07:40;100692.81;;;22.88;63.44
56402;BME280;42299;35.160;26.100;2022-08-16T00:09:03;100697.13;;;22.92;63.31
56402;BME280;42299;35.160;26.100;2022-08-16T00:10:28;100691.66;;;22.95;63.30
56402;BME280;42299;35.160;26.100;2022-08-16T00:11:53;100700.19;;;22.83;63.47
56402;BME280;42299;35.160;26.100;2022-08-16T00:13:15;100696.19;;;22.68;63.78
56402;BME280;42299;35.160;26.100;2022-08-16T00:14:37;100689.25;;;22.61;64.00
56402;BME280;42299;35.160;26.100;2022-08-16T00:16:00;100691.84;;;22.64;63.99
56402;BME280;42299;35.160;26.100;2022-08-16T00:17:21;100692.59;;;22.67;63.82
56402;BME280;42299;35.160;26.100;2022-08-16T00:18:44;100690.59;;;22.74;63.53
56402;BME280;42299;35.160;26.100;2022-08-16T00:20:06;100693.25;;;22.76;63.38
56402;BME280;42299;35.160;26.100;2022-08-16T00:21:30;100692.50;;;22.71;63.36
56402;BME280;42299;35.160;26.100;2022-08-16T00:22:52;100686.34;;;22.67;63.32
56402;BME280;42299;35.160;26.100;2022-08-16T00:24:15;100687.22;;;22.67;63.43
56402;BME280;42299;35.160;26.100;2022-08-16T00:25:38;100685.41;;;22.68;63.48
56402;BME280;42299;35.160;26.100;2022-08-16T00:27:02;100679.19;;;22.66;63.51
56402;BME280;42299;35.160;26.100;2022-08-16T00:28:24;100681.19;;;22.61;63.62
56402;BME280;42299;35.160;26.100;2022-08-16T00:29:46;100683.91;;;22.59;63.64
56402;BME280;42299;35.160;26.100;2022-08-16T00:31:09;100679.53;;;22.57;63.70
56402;BME280;42299;35.160;26.100;2022-08-16T00:32:30;100684.97;;;22.55;63.69
56402;BME280;42299;35.160;26.100;2022-08-16T00:33:53;100676.97;;;22.52;63.86
56402;BME280;42299;35.160;26.100;2022-08-16T00:35:16;100680.06;;;22.42;63.92
56402;BME280;42299;35.160;26.100;2022-08-16T00:36:40;100684.25;;;22.24;64.33
56402;BME280;42299;35.160;26.100;2022-08-16T00:38:06;100677.63;;;22.08;64.84
56402;BME280;42299;35.160;26.100;2022-08-16T00:39:28;100678.91;;;21.95;65.14
56402;BME280;42299;35.160;26.100;2022-08-16T00:40:53;100677.34;;;21.87;65.43
56402;BME280;42299;35.160;26.100;2022-08-16T00:42:16;100679.31;;;21.82;65.76
56402;BME280;42299;35.160;26.100;2022-08-16T00:43:38;100679.31;;;21.82;65.62
56402;BME280;42299;35.160;26.100;2022-08-16T00:45:04;100674.59;;;21.91;65.58
56402;BME280;42299;35.160;26.100;2022-08-16T00:46:29;100683.16;;;22.03;65.39
56402;BME280;42299;35.160;26.100;2022-08-16T00:47:54;100682.84;;;22.12;64.92
56402;BME280;42299;35.160;26.100;2022-08-16T00:49:15;100679.13;;;22.16;64.70
56402;BME280;42299;35.160;26.100;2022-08-16T00:52:00;100678.94;;;22.22;64.61
56402;BME280;42299;35.160;26.100;2022-08-16T00:53:22;100679.09;;;22.18;64.57
56402;BME280;42299;35.160;26.100;2022-08-16T00:54:46;100673.13;;;22.08;64.70
56402;BME280;42299;35.160;26.100;2022-08-16T00:56:14;100673.53;;;21.96;65.03
56402;BME280;42299;35.160;26.100;2022-08-16T00:57:38;100677.50;;;21.83;65.37
56402;BME280;42299;35.160;26.100;2022-08-16T00:59:01;100675.91;;;21.77;65.47
56402;BME280;42299;35.160;26.100;2022-08-16T01:00:24;100675.19;;;21.72;65.69
56402;BME280;42299;35.160;26.100;2022-08-16T01:01:48;100679.75;;;21.69;65.63
56402;BME280;42299;35.160;26.100;2022-08-16T01:03:11;100678.81;;;21.70;65.69
56402;BME280;42299;35.160;26.100;2022-08-16T01:04:35;100680.63;;;21.69;65.79
56402;BME280;42299;35.160;26.100;2022-08-16T01:05:58;100682.34;;;21.72;65.76
56402;BME280;42299;35.160;26.100;2022-08-16T01:07:19;100685.81;;;21.75;65.76
56402;BME280;42299;35.160;26.100;2022-08-16T01:08:42;100685.66;;;21.80;65.42
56402;BME280;42299;35.160;26.100;2022-08-16T01:10:06;100687.19;;;21.88;65.29
56402;BME280;42299;35.160;26.100;2022-08-16T01:11:29;100689.81;;;21.90;65.02
56402;BME280;42299;35.160;26.100;2022-08-16T01:12:52;100687.28;;;21.85;65.24
56402;BME280;42299;35.160;26.100;2022-08-16T01:14:16;100691.69;;;21.88;65.27
56402;BME280;42299;35.160;26.100;2022-08-16T01:15:49;100697.09;;;21.86;65.15
56402;BME280;42299;35.160;26.100;2022-08-16T01:17:13;100702.53;;;21.85;65.25
56402;BME280;42299;35.160;26.100;2022-08-16T01:18:42;100701.59;;;21.86;65.27
56402;BME280;42299;35.160;26.100;2022-08-16T01:20:06;100709.72;;;21.84;65.27
56402;BME280;42299;35.160;26.100;2022-08-16T01:21:38;100711.38;;;21.88;65.40
56402;BME280;42299;35.160;26.100;2022-08-16T01:23:09;100707.66;;;21.93;65.39
56402;BME280;42299;35.160;26.100;2022-08-16T01:24:39;100710.13;;;22.00;65.19
56402;BME280;42299;35.160;26.100;2022-08-16T01:26:05;100709.03;;;22.06;65.04
56402;BME280;42299;35.160;26.100;2022-08-16T01:27:29;100710.69;;;22.11;64.87
56402;BME280;42299;35.160;26.100;2022-08-16T01:28:53;100707.84;;;22.16;64.55
56402;BME280;42299;35.160;26.100;2022-08-16T01:30:20;100704.94;;;22.22;64.43
56402;BME280;42299;35.160;26.100;2022-08-16T01:31:47;100717.47;;;22.23;64.23
56402;BME280;42299;35.160;26.100;2022-08-16T01:33:08;100713.25;;;22.14;64.17
56402;BME280;42299;35.160;26.100;2022-08-16T01:34:32;100718.75;;;22.11;64.34
56402;BME280;42299;35.160;26.100;2022-08-16T01:35:56;100717.91;;;22.09;64.46
56402;BME280;42299;35.160;26.100;2022-08-16T01:37:20;100719.56;;;22.13;64.76
56402;BME280;42299;35.160;26.100;2022-08-16T01:38:46;100718.56;;;22.17;64.38
56402;BME280;42299;35.160;26.100;2022-08-16T01:40:11;100722.22;;;22.15;64.59
56402;BME280;42299;35.160;26.100;2022-08-16T01:41:35;100716.81;;;22.15;64.54
56402;BME280;42299;35.160;26.100;2022-08-16T01:42:57;100721.16;;;22.19;64.57
56402;BME280;42299;35.160;26.100;2022-08-16T01:44:19;100724.66;;;22.22;64.24
56402;BME280;42299;35.160;26.100;2022-08-16T01:45:41;100727.34;;;22.22;64.09
56402;BME280;42299;35.160;26.100;2022-08-16T01:47:07;100725.69;;;22.18;64.04
56402;BME280;42299;35.160;26.100;2022-08-16T01:48:32;100720.41;;;22.15;64.07
56402;BME280;42299;35.160;26.100;2022-08-16T01:49:53;100718.59;;;22.16;63.98
56402;BME280;42299;35.160;26.100;2022-08-16T01:51:17;100718.47;;;22.19;63.84
56402;BME280;42299;35.160;26.100;2022-08-16T01:52:41;100723.03;;;22.17;63.77
56402;BME280;42299;35.160;26.100;2022-08-16T01:54:09;100713.41;;;22.10;63.77
56402;BME280;42299;35.160;26.100;2022-08-16T01:55:40;100724.50;;;21.99;64.13
56402;BME280;42299;35.160;26.100;2022-08-16T01:57:06;100724.63;;;21.95;64.33
56402;BME280;42299;35.160;26.100;2022-08-16T01:58:27;100725.50;;;21.95;64.39
56402;BME280;42299;35.160;26.100;2022-08-16T01:59:50;100730.88;;;21.97;64.42
56402;BME280;42299;35.160;26.100;2022-08-16T02:01:13;100728.06;;;22.00;64.36
56402;BME280;42299;35.160;26.100;2022-08-16T02:02:35;100724.41;;;22.02;64.22
56402;BME280;42299;35.160;26.100;2022-08-16T02:03:57;100732.47;;;22.02;64.15
56402;BME280;42299;35.160;26.100;2022-08-16T02:05:20;100729.03;;;21.99;64.36
56402;BME280;42299;35.160;26.100;2022-08-16T02:06:42;100730.91;;;21.94;64.64
56402;BME280;42299;35.160;26.100;2022-08-16T02:08:05;100731.81;;;21.94;64.80
56402;BME280;42299;35.160;26.100;2022-08-16T02:09:27;100730.84;;;21.98;64.72
56402;BME280;42299;35.160;26.100;2022-08-16T02:10:51;100730.69;;;22.03;64.59
56402;BME280;42299;35.160;26.100;2022-08-16T02:12:14;100734.19;;;22.05;64.44
56402;BME280;42299;35.160;26.100;2022-08-16T02:13:38;100735.94;;;22.06;64.19
56402;BME280;42299;35.160;26.100;2022-08-16T02:15:01;100741.28;;;22.07;64.22
56402;BME280;42299;35.160;26.100;2022-08-16T02:16:25;100737.78;;;22.05;64.24
56402;BME280;42299;35.160;26.100;2022-08-16T02:17:47;100738.69;;;22.04;64.27
56402;BME280;42299;35.160;26.100;2022-08-16T02:19:09;100732.53;;;22.01;64.29
56402;BME280;42299;35.160;26.100;2022-08-16T02:20:34;100733.56;;;21.97;64.31
56402;BME280;42299;35.160;26.100;2022-08-16T02:21:57;100734.53;;;21.93;64.27
56402;BME280;42299;35.160;26.100;2022-08-16T02:23:21;100740.09;;;21.86;64.39
56402;BME280;42299;35.160;26.100;2022-08-16T02:24:43;100745.59;;;21.83;64.48
56402;BME280;42299;35.160;26.100;2022-08-16T02:26:07;100746.50;;;21.82;64.67
56402;BME280;42299;35.160;26.100;2022-08-16T02:27:29;100755.41;;;21.84;64.65
56402;BME280;42299;35.160;26.100;2022-08-16T02:28:51;100752.63;;;21.87;64.55
56402;BME280;42299;35.160;26.100;2022-08-16T02:30:19;100757.97;;;21.89;64.48
56402;BME280;42299;35.160;26.100;2022-08-16T02:31:41;100757.03;;;21.90;64.52
56402;BME280;42299;35.160;26.100;2022-08-16T02:33:04;100757.03;;;21.90;64.50
56402;BME280;42299;35.160;26.100;2022-08-16T02:34:25;100757.19;;;21.85;64.52
56402;BME280;42299;35.160;26.100;2022-08-16T02:35:48;100757.19;;;21.85;64.57
56402;BME280;42299;35.160;26.100;2022-08-16T02:37:11;100753.63;;;21.85;64.82
56402;BME280;42299;35.160;26.100;2022-08-16T02:38:33;100755.41;;;21.84;64.85
56402;BME280;42299;35.160;26.100;2022-08-16T02:39:55;100759.91;;;21.84;64.94
56402;BME280;42299;35.160;26.100;2022-08-16T02:41:19;100763.47;;;21.84;64.79
56402;BME280;42299;35.160;26.100;2022-08-16T02:42:41;100765.28;;;21.84;64.77
56402;BME280;42299;35.160;26.100;2022-08-16T02:44:04;100768.88;;;21.84;64.69
56402;BME280;42299;35.160;26.100;2022-08-16T02:45:28;100769.75;;;21.85;64.78
56402;BME280;42299;35.160;26.100;2022-08-16T02:46:51;100771.47;;;21.86;64.69
56402;BME280;42299;35.160;26.100;2022-08-16T02:48:13;100765.25;;;21.85;64.61
56402;BME280;42299;35.160;26.100;2022-08-16T02:49:35;100765.31;;;21.82;64.79
56402;BME280;42299;35.160;26.100;2022-08-16T02:50:58;100765.47;;;21.78;64.68
56402;BME280;42299;35.160;26.100;2022-08-16T02:52:21;100763.94;;;21.69;65.04
56402;BME280;42299;35.160;26.100;2022-08-16T02:53:46;100766.84;;;21.62;65.25
56402;BME280;42299;35.160;26.100;2022-08-16T02:55:09;100768.66;;;21.61;65.12
56402;BME280;42299;35.160;26.100;2022-08-16T02:56:34;100770.38;;;21.64;64.99
56402;BME280;42299;35.160;26.100;2022-08-16T02:57:56;100767.59;;;21.67;64.86
56402;BME280;42299;35.160;26.100;2022-08-16T02:59:18;100764.81;;;21.70;64.80
56402;BME280;42299;35.160;26.100;2022-08-16T03:00:40;100770.19;;;21.70;64.77
56402;BME280;42299;35.160;26.100;2022-08-16T03:02:03;100764.72;;;21.73;64.68
56402;BME280;42299;35.160;26.100;2022-08-16T03:03:26;100767.38;;;21.74;64.70
56402;BME280;42299;35.160;26.100;2022-08-16T03:04:48;100770.06;;;21.74;64.71
56402;BME280;42299;35.160;26.100;2022-08-16T03:06:11;100772.84;;;21.71;64.96
56402;BME280;42299;35.160;26.100;2022-08-16T03:07:34;100781.16;;;21.62;65.01
56402;BME280;42299;35.160;26.100;2022-08-16T03:08:56;100771.47;;;21.57;65.41
56402;BME280;42299;35.160;26.100;2022-08-16T03:10:19;100780.41;;;21.59;65.43
56402;BME280;42299;35.160;26.100;2022-08-16T03:11:44;100776.72;;;21.61;65.50
56402;BME280;42299;35.160;26.100;2022-08-16T03:13:06;100779.38;;;21.63;65.47
56402;BME280;42299;35.160;26.100;2022-08-16T03:14:29;100779.28;;;21.66;65.40
56402;BME280;42299;35.160;26.100;2022-08-16T03:15:52;100776.59;;;21.66;65.64
56402;BME280;42299;35.160;26.100;2022-08-16T03:17:15;100774.75;;;21.66;65.46
56402;BME280;42299;35.160;26.100;2022-08-16T03:18:37;100776.69;;;21.63;65.40
56402;BME280;42299;35.160;26.100;2022-08-16T03:20:00;100775.97;;;21.56;65.68
56402;BME280;42299;35.160;26.100;2022-08-16T03:21:29;100787.94;;;21.46;65.70
56402;BME280;42299;35.160;26.100;2022-08-16T03:22:53;100782.81;;;21.37;66.04
56402;BME280;42299;35.160;26.100;2022-08-16T03:24:16;100781.16;;;21.33;66.31
56402;BME280;42299;35.160;26.100;2022-08-16T03:25:37;100783.03;;;21.29;66.25
56402;BME280;42299;35.160;26.100;2022-08-16T03:27:02;100778.66;;;21.25;66.73
56402;BME280;42299;35.160;26.100;2022-08-16T03:28:27;100783.97;;;21.27;66.72
56402;BME280;42299;35.160;26.100;2022-08-16T03:29:49;100784.69;;;21.33;66.74
56402;BME280;42299;35.160;26.100;2022-08-16T03:31:12;100782.78;;;21.38;66.79
56402;BME280;42299;35.160;26.100;2022-08-16T03:32:34;100781.75;;;21.42;66.55
56402;BME280;42299;35.160;26.100;2022-08-16T03:33:56;100791.47;;;21.46;66.51
56402;BME280;42299;35.160;26.100;2022-08-16T03:35:20;100790.53;;;21.47;66.23
56402;BME280;42299;35.160;26.100;2022-08-16T03:36:42;100786.19;;;21.43;66.07
56402;BME280;42299;35.160;26.100;2022-08-16T03:38:09;100782.59;;;21.44;66.27
56402;BME280;42299;35.160;26.100;2022-08-16T03:39:38;100787.03;;;21.45;66.16
56402;BME280;42299;35.160;26.100;2022-08-16T03:41:02;100785.09;;;21.51;66.33
56402;BME280;42299;35.160;26.100;2022-08-16T03:42:26;100788.63;;;21.53;66.35
56402;BME280;42299;35.160;26.100;2022-08-16T03:43:51;100793.16;;;21.51;66.53
56402;BME280;42299;35.160;26.100;2022-08-16T03:45:17;100785.09;;;21.51;66.80
56402;BME280;42299;35.160;26.100;2022-08-16T03:46:38;100787.88;;;21.47;66.92
56402;BME280;42299;35.160;26.100;2022-08-16T03:48:02;100794.09;;;21.50;66.94
56402;BME280;42299;35.160;26.100;2022-08-16T03:49:25;100790.53;;;21.47;66.88
56402;BME280;42299;35.160;26.100;2022-08-16T03:50:49;100788.88;;;21.43;66.89
56402;BME280;42299;35.160;26.100;2022-08-16T03:52:11;100791.66;;;21.40;67.29
56402;BME280;42299;35.160;26.100;2022-08-16T03:53:33;100791.72;;;21.39;67.58
56402;BME280;42299;35.160;26.100;2022-08-16T03:54:56;100796.13;;;21.40;67.75
56402;BME280;42299;35.160;26.100;2022-08-16T03:56:20;100799.53;;;21.46;67.49
56402;BME280;42299;35.160;26.100;2022-08-16T03:57:45;100786.78;;;21.53;67.25
56402;BME280;42299;35.160;26.100;2022-08-16T03:59:09;100800.91;;;21.61;67.17
56402;BME280;42299;35.160;26.100;2022-08-16T04:00:40;100799.84;;;21.67;67.06
56402;BME280;42299;35.160;26.100;2022-08-16T04:02:08;100797.91;;;21.72;67.06
56402;BME280;42299;35.160;26.100;2022-08-16T04:03:32;100805.88;;;21.75;67.17
56402;BME280;42299;35.160;26.100;2022-08-16T04:04:54;100798.66;;;21.77;67.04
56402;BME280;42299;35.160;26.100;2022-08-16T04:06:18;100792.25;;;21.81;66.75
56402;BME280;42299;35.160;26.100;2022-08-16T04:07:41;100801.13;;;21.84;66.64
56402;BME280;42299;35.160;26.100;2022-08-16T04:09:03;100807.25;;;21.88;66.68
56402;BME280;42299;35.160;26.100;2022-08-16T04:10:27;100805.41;;;21.90;66.66
56402;BME280;42299;35.160;26.100;2022-08-16T04:11:48;100808.06;;;21.92;66.86
56402;BME280;42299;35.160;26.100;2022-08-16T04:13:12;100804.19;;;22.02;67.06
56402;BME280;42299;35.160;26.100;2022-08-16T04:14:35;100801.13;;;22.14;66.93
56402;BME280;42299;35.160;26.100;2022-08-16T04:15:58;100809.63;;;22.28;66.85
56402;BME280;42299;35.160;26.100;2022-08-16T04:17:19;100798.44;;;22.42;66.60
56402;BME280;42299;35.160;26.100;2022-08-16T04:18:42;100799.75;;;22.56;66.35
56402;BME280;42299;35.160;26.100;2022-08-16T04:20:05;100807.28;;;22.72;66.26
56402;BME280;42299;35.160;26.100;2022-08-16T04:21:29;100803.38;;;22.83;66.32
56402;BME280;42299;35.160;26.100;2022-08-16T04:22:50;100811.94;;;22.94;66.01
56402;BME280;42299;35.160;26.100;2022-08-16T04:24:13;100802.59;;;23.04;66.05
56402;BME280;42299;35.160;26.100;2022-08-16T04:25:36;100803.81;;;23.21;66.04
56402;BME280;42299;35.160;26.100;2022-08-16T04:27:01;100810.41;;;23.37;65.77
56402;BME280;42299;35.160;26.100;2022-08-16T04:28:25;100803.56;;;23.53;65.38
56402;BME280;42299;35.160;26.100;2022-08-16T04:29:48;100804.88;;;23.66;65.17
56402;BME280;42299;35.160;26.100;2022-08-16T04:31:10;100799.06;;;23.77;64.81
56402;BME280;42299;35.160;26.100;2022-08-16T04:32:36;100801.16;;;23.92;64.48
56402;BME280;42299;35.160;26.100;2022-08-16T04:34:00;100808.72;;;24.06;63.93
56402;BME280;42299;35.160;26.100;2022-08-16T04:35:22;100811.88;;;24.17;63.77
56402;BME280;42299;35.160;26.100;2022-08-16T04:36:46;100808.66;;;24.31;63.31
56402;BME280;42299;35.160;26.100;2022-08-16T04:38:09;100808.88;;;24.48;62.99
56402;BME280;42299;35.160;26.100;2022-08-16T04:39:36;100802.75;;;24.65;62.73
56402;BME280;42299;35.160;26.100;2022-08-16T04:40:58;100808.31;;;24.82;62.36
56402;BME280;42299;35.160;26.100;2022-08-16T04:42:22;100809.47;;;24.98;62.15
56402;BME280;42299;35.160;26.100;2022-08-16T04:43:46;100805.97;;;25.16;61.98
56402;BME280;42299;35.160;26.100;2022-08-16T04:45:11;100808.72;;;25.35;61.66
56402;BME280;42299;35.160;26.100;2022-08-16T04:46:33;100820.47;;;25.54;61.19
56402;BME280;42299;35.160;26.100;2022-08-16T04:47:57;100812.56;;;25.70;60.87
56402;BME280;42299;35.160;26.100;2022-08-16T04:49:26;100814.47;;;25.87;60.36
56402;BME280;42299;35.160;26.100;2022-08-16T04:50:49;100819.19;;;26.02;60.16
56402;BME280;42299;35.160;26.100;2022-08-16T04:52:15;100815.69;;;26.18;59.99
56402;BME280;42299;35.160;26.100;2022-08-16T04:53:36;100819.50;;;26.33;59.70
56402;BME280;42299;35.160;26.100;2022-08-16T04:54:59;100821.22;;;26.53;59.38
56402;BME280;42299;35.160;26.100;2022-08-16T04:56:20;100813.16;;;26.70;59.10
56402;BME280;42299;35.160;26.100;2022-08-16T04:57:47;100818.56;;;26.89;58.67
56402;BME280;42299;35.160;26.100;2022-08-16T04:59:11;100816.78;;;27.05;58.22
56402;BME280;42299;35.160;26.100;2022-08-16T05:00:33;100823.13;;;27.23;57.84
56402;BME280;42299;35.160;26.100;2022-08-16T05:02:03;100824.03;;;27.39;57.61
56402;BME280;42299;35.160;26.100;2022-08-16T05:03:26;100819.59;;;27.55;57.13
56402;BME280;42299;35.160;26.100;2022-08-16T05:04:48;100821.38;;;27.72;56.71
56402;BME280;42299;35.160;26.100;2022-08-16T05:06:11;100820.56;;;27.87;56.43
56402;BME280;42299;35.160;26.100;2022-08-16T05:07:34;100828.63;;;28.04;55.98
56402;BME280;42299;35.160;26.100;2022-08-16T05:08:57;100827.63;;;28.23;55.81
56402;BME280;42299;35.160;26.100;2022-08-16T05:10:20;100828.34;;;28.42;55.44
56402;BME280;42299;35.160;26.100;2022-08-16T05:11:43;100828.25;;;28.59;54.96
56402;BME280;42299;35.160;26.100;2022-08-16T05:13:07;100836.31;;;28.76;54.58
56402;BME280;42299;35.160;26.100;2022-08-16T05:14:31;100833.56;;;28.92;54.12
56402;BME280;42299;35.160;26.100;2022-08-16T05:15:52;100834.50;;;29.07;53.79
56402;BME280;42299;35.160;26.100;2022-08-16T05:17:18;100825.31;;;29.23;53.64
56402;BME280;42299;35.160;26.100;2022-08-16T05:18:41;100824.50;;;29.37;53.17
56402;BME280;42299;35.160;26.100;2022-08-16T05:20:05;100830.78;;;29.53;52.73
56402;BME280;42299;35.160;26.100;2022-08-16T05:21:34;100825.22;;;29.69;52.41
56402;BME280;42299;35.160;26.100;2022-08-16T05:22:58;100817.06;;;29.83;52.20
56402;BME280;42299;35.160;26.100;2022-08-16T05:24:21;100826.81;;;30.01;51.98
56402;BME280;42299;35.160;26.100;2022-08-16T05:25:43;100832.72;;;30.22;51.39
56402;BME280;42299;35.160;26.100;2022-08-16T05:27:06;100827.72;;;30.43;50.72
56402;BME280;42299;35.160;26.100;2022-08-16T05:28:28;100828.69;;;30.56;50.07
56402;BME280;42299;35.160;26.100;2022-08-16T05:29:52;100826.91;;;30.69;49.76
56402;BME280;42299;35.160;26.100;2022-08-16T05:31:15;100827.06;;;30.80;49.14
56402;BME280;42299;35.160;26.100;2022-08-16T05:32:39;100822.06;;;30.87;49.15
56402;BME280;42299;35.160;26.100;2022-08-16T05:34:03;100821.19;;;30.86;48.87
56402;BME280;42299;35.160;26.100;2022-08-16T05:35:28;100831.25;;;30.99;48.51
56402;BME280;42299;35.160;26.100;2022-08-16T05:37:01;100824.00;;;31.12;48.12
56402;BME280;42299;35.160;26.100;2022-08-16T05:38:30;100827.75;;;31.23;47.46
56402;BME280;42299;35.160;26.100;2022-08-16T05:39:54;100823.06;;;31.38;47.18
56402;BME280;42299;35.160;26.100;2022-08-16T05:41:17;100819.72;;;31.47;46.87
56402;BME280;42299;35.160;26.100;2022-08-16T05:42:39;100828.13;;;31.57;46.13
56402;BME280;42299;35.160;26.100;2022-08-16T05:44:02;100829.16;;;31.69;45.68
56402;BME280;42299;35.160;26.100;2022-08-16T05:45:33;100820.94;;;31.81;45.35
56402;BME280;42299;35.160;26.100;2022-08-16T05:46:59;100820.94;;;31.94;45.28
56402;BME280;42299;35.160;26.100;2022-08-16T05:48:23;100814.34;;;32.09;44.61
56402;BME280;42299;35.160;26.100;2022-08-16T05:49:56;100818.50;;;32.27;44.54
56402;BME280;42299;35.160;26.100;2022-08-16T05:51:18;100823.81;;;32.41;44.07
56402;BME280;42299;35.160;26.100;2022-08-16T05:52:41;100823.47;;;32.46;43.58
56402;BME280;42299;35.160;26.100;2022-08-16T05:54:04;100817.78;;;32.49;43.24
56402;BME280;42299;35.160;26.100;2022-08-16T05:55:25;100814.44;;;32.57;43.08
56402;BME280;42299;35.160;26.100;2022-08-16T05:56:48;100822.06;;;32.64;42.56
56402;BME280;42299;35.160;26.100;2022-08-16T05:58:10;100816.44;;;32.67;42.31
56402;BME280;42299;35.160;26.100;2022-08-16T05:59:33;100816.59;;;32.64;41.85
56402;BME280;42299;35.160;26.100;2022-08-16T06:00:57;100820.22;;;32.65;41.73
56402;BME280;42299;35.160;26.100;2022-08-16T06:02:20;100819.78;;;32.71;41.97
56402;BME280;42299;35.160;26.100;2022-08-16T06:03:48;100815.88;;;32.86;41.89
56402;BME280;42299;35.160;26.100;2022-08-16T06:05:20;100826.66;;;33.00;41.31
56402;BME280;42299;35.160;26.100;2022-08-16T06:06:44;100826.28;;;33.05;40.83
56402;BME280;42299;35.160;26.100;2022-08-16T06:08:07;100826.06;;;33.08;40.82
56402;BME280;42299;35.160;26.100;2022-08-16T06:09:37;100835.94;;;33.21;40.78
56402;BME280;42299;35.160;26.100;2022-08-16T06:10:59;100836.88;;;33.33;40.53
56402;BME280;42299;35.160;26.100;2022-08-16T06:12:22;100833.53;;;33.41;40.19
56402;BME280;42299;35.160;26.100;2022-08-16T06:13:45;100830.66;;;33.42;40.03
56402;BME280;42299;35.160;26.100;2022-08-16T06:15:18;100832.69;;;33.51;39.95
56402;BME280;42299;35.160;26.100;2022-08-16T06:16:42;100838.06;;;33.64;39.45
56402;BME280;42299;35.160;26.100;2022-08-16T06:18:05;100829.56;;;33.56;39.25
56402;BME280;42299;35.160;26.100;2022-08-16T06:19:26;100822.81;;;33.38;39.61
56402;BME280;42299;35.160;26.100;2022-08-16T06:20:56;100822.97;;;33.47;39.78
56402;BME280;42299;35.160;26.100;2022-08-16T06:22:21;100823.47;;;33.52;39.53
56402;BME280;42299;35.160;26.100;2022-08-16T06:23:44;100813.25;;;33.54;39.30
56402;BME280;42299;35.160;26.100;2022-08-16T06:25:06;100808.81;;;33.53;39.02
56402;BME280;42299;35.160;26.100;2022-08-16T06:26:29;100810.91;;;33.50;38.89
56402;BME280;42299;35.160;26.100;2022-08-16T06:27:50;100819.38;;;33.58;38.84
56402;BME280;42299;35.160;26.100;2022-08-16T06:29:13;100814.44;;;33.74;38.97
56402;BME280;42299;35.160;26.100;2022-08-16T06:30:37;100810.59;;;33.88;38.49
56402;BME280;42299;35.160;26.100;2022-08-16T06:32:00;100805.72;;;34.03;38.22
56402;BME280;42299;35.160;26.100;2022-08-16T06:33:23;100813.72;;;34.06;38.05
56402;BME280;42299;35.160;26.100;2022-08-16T06:34:46;100801.03;;;33.93;37.99
56402;BME280;42299;35.160;26.100;2022-08-16T06:36:09;100800.63;;;33.76;38.22
56402;BME280;42299;35.160;26.100;2022-08-16T06:37:33;100806.09;;;33.76;38.41
56402;BME280;42299;35.160;26.100;2022-08-16T06:38:55;100808.88;;;33.87;37.98
56402;BME280;42299;35.160;26.100;2022-08-16T06:40:32;100810.09;;;34.05;37.63
56402;BME280;42299;35.160;26.100;2022-08-16T06:41:54;100812.72;;;34.07;37.02
56402;BME280;42299;35.160;26.100;2022-08-16T06:43:36;100804.50;;;34.07;37.29
56402;BME280;42299;35.160;26.100;2022-08-16T06:45:02;100802.38;;;34.21;36.83
56402;BME280;42299;35.160;26.100;2022-08-16T06:46:34;100804.97;;;34.34;36.31
56402;BME280;42299;35.160;26.100;2022-08-16T06:48:06;100806.00;;;34.33;35.82
56402;BME280;42299;35.160;26.100;2022-08-16T06:49:27;100815.44;;;34.40;35.65
56402;BME280;42299;35.160;26.100;2022-08-16T06:50:50;100806.31;;;34.51;35.16
56402;BME280;42299;35.160;26.100;2022-08-16T06:52:12;100801.78;;;34.61;34.95
56402;BME280;42299;35.160;26.100;2022-08-16T06:53:36;100807.38;;;34.70;34.44
56402;BME280;42299;35.160;26.100;2022-08-16T06:54:59;100803.00;;;34.79;33.81
56402;BME280;42299;35.160;26.100;2022-08-16T06:56:22;100806.16;;;34.74;33.95
56402;BME280;42299;35.160;26.100;2022-08-16T06:58:05;100806.16;;;34.74;34.63
56402;BME280;42299;35.160;26.100;2022-08-16T06:59:27;100806.72;;;34.01;37.29
56402;BME280;42299;35.160;26.100;2022-08-16T07:00:52;100805.63;;;32.53;40.96
56402;BME280;42299;35.160;26.100;2022-08-16T07:02:14;100806.50;;;31.54;44.50
56402;BME280;42299;35.160;26.100;2022-08-16T07:03:40;100808.91;;;30.67;45.13
56402;BME280;42299;35.160;26.100;2022-08-16T07:05:03;100810.06;;;30.07;45.17
56402;BME280;42299;35.160;26.100;2022-08-16T07:06:26;100815.53;;;29.93;45.30
56402;BME280;42299;35.160;26.100;2022-08-16T07:07:54;100805.53;;;29.80;45.30
56402;BME280;42299;35.160;26.100;2022-08-16T07:09:18;100803.75;;;29.79;44.78
56402;BME280;42299;35.160;26.100;2022-08-16T07:10:42;100801.31;;;29.88;44.24
56402;BME280;42299;35.160;26.100;2022-08-16T07:12:06;100810.28;;;30.04;43.80
56402;BME280;42299;35.160;26.100;2022-08-16T07:13:34;100810.47;;;30.16;43.28
56402;BME280;42299;35.160;26.100;2022-08-16T07:14:57;100810.13;;;30.34;42.59